Ralph, AL (35480)

3:41 PM CDT on August 21, 2014 (GMT -0500)
Romulus Rd. | Change Station
CLOSE
Current Station
Personal Weather Station
Location: Coker, AL
Elevation: 225 ft
Nearby Weather Stations
Active Advisory: Heat Advisory

Elev 225 ft 33.24 °N, 87.69 °W | Updated 5 minutes ago

Partly Cloudy
Partly Cloudy
94.8 °F
Feels Like 109 °F
N
0.0
Wind Variable Wind from WNW

Today
High -- | Low -- °F
--% Chance of Precip.
Yesterday
High -- | Low -- °F
Precip. -- in
6:18 AM 7:29 PM
Waning Crescent, 12% visible
Pressure 30.08 in
Visibility 7.0 miles
Clouds Few 5000 ft
Heat Index 109 °F
Dew Point 77 °F
Humidity 56%
Rainfall 0.00 in
Snow Depth Not available.
UV 2.3 out of 12
Pollen 8.90 out of 12
Ozone Good
PM2.5 Moderate
Flu Activity Not available.
METAR KTCL 211953Z 00000KT 7SM FEW050 35/21 A3008 RMK AO2 SLP185 T03500211

More Conditions Fewer Conditions

Pressure 30.08 in
Visibility 7.0 miles
Clouds Few 5000 ft
Heat Index 109 °F
Dew Point 77 °F
Humidity 56%
Rainfall 0.00 in
Snow Depth Not available.
UV 2.3 out of 12
Pollen 8.90 out of 12
Ozone Good
PM2.5 Moderate
Flu Activity Not available.
METAR KTCL 211953Z 00000KT 7SM FEW050 35/21 A3008 RMK AO2 SLP185 T03500211

More Conditions Fewer Conditions

10-Day Weather Forecast

Almanac

Astronomy

Aug. 21, 2014 Rise Set
Actual Time 6:18 AM CDT 7:29 PM CDT
Civil Twilight 5:52 AM CDT 7:55 PM CDT
Nautical Twilight 5:21 AM CDT 8:25 PM CDT
Astronomical Twilight 4:49 AM CDT 8:57 PM CDT
Moon 2:53 AM CDT 4:53 PM CDT
Length of Visible Light 14h 02m
Length of Day
13h 11m
Tomorrow will be 1m 52s shorter.
Waning Crescent, 12% of the Moon is Illuminated
Today
Waning Crescent
Aug 25
New
Sep 2
First Quarter
Sep 8
Full
Sep 15
Last Quarter

Today's Extremes

State Highs State Lows

Community

WunderPhotos

Upload Photos

1,746,017 photos uploaded!

WunderBlogs® & News

Nearby

Air Quality

  Air Quality AQ Index Pollutant
Yesterday Good
PM10
Yesterday Good
OZONE
Current Moderate
PM2.5
Current Good
OZONE
Thursday Moderate
PM2.5
Thursday Good
OZONE
Friday Moderate
PM2.5
Friday Good
OZONE

Snow Depth

Station Depth Elevation
No new snow has been reported.

Earthquake Activity

City Distance Mag. Time & Date
No recent earthquake activity has been reported nearby.
Minimum magnitude displayed is 2.5.

Coastal Water Temperatures

Place Temperature
No Stations Reporting

Nearby Weather Stations